sensor_id;sensor_type;location;lat;lon;timestamp;pressure;altitude;pressure_sealevel;temperature;humidity
5905;BME280;2978;42.012;24.880;2023-04-21T00:00:55;98314.47;;;13.87;70.43
5905;BME280;2978;42.012;24.880;2023-04-21T00:03:21;98311.69;;;13.87;71.14
5905;BME280;2978;42.012;24.880;2023-04-21T00:05:48;98314.66;;;13.77;71.75
5905;BME280;2978;42.012;24.880;2023-04-21T00:08:15;98308.09;;;13.87;71.35
5905;BME280;2978;42.012;24.880;2023-04-21T00:10:41;98308.22;;;13.82;71.20
5905;BME280;2978;42.012;24.880;2023-04-21T00:13:06;98302.16;;;13.66;71.50
5905;BME280;2978;42.012;24.880;2023-04-21T00:15:32;98293.69;;;13.63;72.10
5905;BME280;2978;42.012;24.880;2023-04-21T00:17:57;98291.44;;;13.65;71.49
5905;BME280;2978;42.012;24.880;2023-04-21T00:20:24;98296.03;;;13.69;70.99
5905;BME280;2978;42.012;24.880;2023-04-21T00:22:52;98298.28;;;13.67;71.29
5905;BME280;2978;42.012;24.880;2023-04-21T00:25:17;98299.50;;;13.75;70.87
5905;BME280;2978;42.012;24.880;2023-04-21T00:27:43;98291.75;;;13.77;70.86
5905;BME280;2978;42.012;24.880;2023-04-21T00:30:08;98291.31;;;13.83;69.80
5905;BME280;2978;42.012;24.880;2023-04-21T00:32:34;98295.22;;;13.82;69.23
5905;BME280;2978;42.012;24.880;2023-04-21T00:35:00;98289.91;;;13.86;69.14
5905;BME280;2978;42.012;24.880;2023-04-21T00:37:25;98295.31;;;13.91;69.26
5905;BME280;2978;42.012;24.880;2023-04-21T00:39:51;98284.03;;;14.01;68.33
5905;BME280;2978;42.012;24.880;2023-04-21T00:42:16;98285.38;;;14.03;67.63
5905;BME280;2978;42.012;24.880;2023-04-21T00:44:42;98292.75;;;14.08;67.58
5905;BME280;2978;42.012;24.880;2023-04-21T00:47:07;98289.97;;;14.08;67.72
5905;BME280;2978;42.012;24.880;2023-04-21T00:49:33;98284.75;;;14.06;67.24
5905;BME280;2978;42.012;24.880;2023-04-21T00:51:59;98280.66;;;14.04;67.91
5905;BME280;2978;42.012;24.880;2023-04-21T00:54:25;98282.91;;;14.02;68.22
5905;BME280;2978;42.012;24.880;2023-04-21T00:56:51;98280.47;;;13.87;68.97
5905;BME280;2978;42.012;24.880;2023-04-21T00:59:17;98277.72;;;13.87;68.63
5905;BME280;2978;42.012;24.880;2023-04-21T01:01:42;98270.47;;;13.77;68.67
5905;BME280;2978;42.012;24.880;2023-04-21T01:04:08;98272.78;;;13.56;69.27
5905;BME280;2978;42.012;24.880;2023-04-21T01:06:34;98270.66;;;13.53;69.54
5905;BME280;2978;42.012;24.880;2023-04-21T01:09:00;98265.44;;;13.52;69.65
5905;BME280;2978;42.012;24.880;2023-04-21T01:11:26;98253.66;;;13.46;69.96
5905;BME280;2978;42.012;24.880;2023-04-21T01:13:52;98271.88;;;13.47;70.29
5905;BME280;2978;42.012;24.880;2023-04-21T01:16:21;98266.97;;;13.44;70.42
5905;BME280;2978;42.012;24.880;2023-04-21T01:18:51;98272.78;;;13.43;70.39
5905;BME280;2978;42.012;24.880;2023-04-21T01:21:18;98281.50;;;13.50;69.30
5905;BME280;2978;42.012;24.880;2023-04-21T01:23:44;98282.31;;;13.64;69.42
5905;BME280;2978;42.012;24.880;2023-04-21T01:26:10;98275.97;;;13.64;69.31
5905;BME280;2978;42.012;24.880;2023-04-21T01:28:36;98282.09;;;13.61;70.28
5905;BME280;2978;42.012;24.880;2023-04-21T01:31:03;98281.19;;;13.51;70.67
5905;BME280;2978;42.012;24.880;2023-04-21T01:33:29;98284.56;;;13.48;72.05
5905;BME280;2978;42.012;24.880;2023-04-21T01:35:54;98287.84;;;13.37;73.73
5905;BME280;2978;42.012;24.880;2023-04-21T01:38:20;98282.69;;;13.30;74.72
5905;BME280;2978;42.012;24.880;2023-04-21T01:40:49;98292.09;;;13.16;75.93
5905;BME280;2978;42.012;24.880;2023-04-21T01:43:16;98284.25;;;13.04;76.31
5905;BME280;2978;42.012;24.880;2023-04-21T01:45:42;98287.69;;;12.96;77.90
5905;BME280;2978;42.012;24.880;2023-04-21T01:48:07;98294.63;;;12.94;78.44
5905;BME280;2978;42.012;24.880;2023-04-21T01:50:33;98301.88;;;12.90;79.82
5905;BME280;2978;42.012;24.880;2023-04-21T01:52:58;98282.13;;;12.83;81.13
5905;BME280;2978;42.012;24.880;2023-04-21T01:55:24;98288.22;;;12.80;81.27
5905;BME280;2978;42.012;24.880;2023-04-21T01:57:50;98292.44;;;12.77;81.84
5905;BME280;2978;42.012;24.880;2023-04-21T02:00:15;98292.97;;;12.79;82.67
5905;BME280;2978;42.012;24.880;2023-04-21T02:02:41;98284.69;;;12.79;82.44
5905;BME280;2978;42.012;24.880;2023-04-21T02:05:06;98270.19;;;12.55;82.46
5905;BME280;2978;42.012;24.880;2023-04-21T02:07:32;98271.88;;;12.51;82.90
5905;BME280;2978;42.012;24.880;2023-04-21T02:09:57;98274.03;;;12.54;83.29
5905;BME280;2978;42.012;24.880;2023-04-21T02:12:23;98281.78;;;12.52;83.12
5905;BME280;2978;42.012;24.880;2023-04-21T02:14:48;98287.91;;;12.49;83.89
5905;BME280;2978;42.012;24.880;2023-04-21T02:17:14;98289.91;;;12.43;84.96
5905;BME280;2978;42.012;24.880;2023-04-21T02:19:39;98284.72;;;12.42;85.42
5905;BME280;2978;42.012;24.880;2023-04-21T02:22:05;98286.50;;;12.52;86.00
5905;BME280;2978;42.012;24.880;2023-04-21T02:24:33;98296.94;;;12.55;86.46
5905;BME280;2978;42.012;24.880;2023-04-21T02:26:58;98294.47;;;12.53;86.66
5905;BME280;2978;42.012;24.880;2023-04-21T02:29:24;98298.25;;;12.57;87.36
5905;BME280;2978;42.012;24.880;2023-04-21T02:31:49;98302.88;;;12.62;87.29
5905;BME280;2978;42.012;24.880;2023-04-21T02:34:15;98297.44;;;12.57;87.75
5905;BME280;2978;42.012;24.880;2023-04-21T02:36:40;98296.72;;;12.51;88.34
5905;BME280;2978;42.012;24.880;2023-04-21T02:41:42;98302.47;;;12.36;88.95
5905;BME280;2978;42.012;24.880;2023-04-21T02:44:07;98293.75;;;12.29;88.58
5905;BME280;2978;42.012;24.880;2023-04-21T02:46:33;98294.75;;;12.33;89.32
5905;BME280;2978;42.012;24.880;2023-04-21T02:48:58;98291.25;;;12.27;89.27
5905;BME280;2978;42.012;24.880;2023-04-21T02:51:24;98294.38;;;12.21;89.83
5905;BME280;2978;42.012;24.880;2023-04-21T02:53:50;98299.13;;;12.15;90.26
5905;BME280;2978;42.012;24.880;2023-04-21T02:56:15;98279.69;;;12.07;90.91
5905;BME280;2978;42.012;24.880;2023-04-21T02:58:40;98293.84;;;12.19;90.74
5905;BME280;2978;42.012;24.880;2023-04-21T03:01:06;98291.03;;;12.24;90.97
5905;BME280;2978;42.012;24.880;2023-04-21T03:03:31;98290.22;;;12.23;90.90
5905;BME280;2978;42.012;24.880;2023-04-21T03:06:02;98294.38;;;12.21;91.06
5905;BME280;2978;42.012;24.880;2023-04-21T03:08:29;98291.03;;;12.24;91.46
5905;BME280;2978;42.012;24.880;2023-04-21T03:10:55;98294.91;;;12.23;91.10
5905;BME280;2978;42.012;24.880;2023-04-21T03:13:21;98290.56;;;12.17;91.79
5905;BME280;2978;42.012;24.880;2023-04-21T03:15:47;98289.63;;;12.26;91.19
5905;BME280;2978;42.012;24.880;2023-04-21T03:18:13;98289.84;;;12.30;90.53
5905;BME280;2978;42.012;24.880;2023-04-21T03:20:38;98301.31;;;12.37;89.75
5905;BME280;2978;42.012;24.880;2023-04-21T03:23:04;98296.41;;;12.34;89.54
5905;BME280;2978;42.012;24.880;2023-04-21T03:25:29;98297.88;;;12.45;89.50
5905;BME280;2978;42.012;24.880;2023-04-21T03:27:55;98301.38;;;12.51;88.33
5905;BME280;2978;42.012;24.880;2023-04-21T03:30:21;98295.34;;;12.48;87.73
5905;BME280;2978;42.012;24.880;2023-04-21T03:32:47;98288.13;;;12.53;88.19
5905;BME280;2978;42.012;24.880;2023-04-21T03:35:12;98285.00;;;12.59;88.16
5905;BME280;2978;42.012;24.880;2023-04-21T03:37:38;98299.56;;;12.78;86.98
5905;BME280;2978;42.012;24.880;2023-04-21T03:40:04;98299.50;;;12.83;86.31
5905;BME280;2978;42.012;24.880;2023-04-21T03:42:35;98294.06;;;12.78;83.75
5905;BME280;2978;42.012;24.880;2023-04-21T03:45:02;98304.00;;;12.79;81.25
5905;BME280;2978;42.012;24.880;2023-04-21T03:47:27;98310.03;;;12.81;78.06
5905;BME280;2978;42.012;24.880;2023-04-21T03:49:53;98316.03;;;12.83;78.12
5905;BME280;2978;42.012;24.880;2023-04-21T03:52:18;98314.03;;;12.89;81.17
5905;BME280;2978;42.012;24.880;2023-04-21T03:54:44;98326.63;;;12.76;81.98
5905;BME280;2978;42.012;24.880;2023-04-21T03:57:09;98322.78;;;12.77;81.04
5905;BME280;2978;42.012;24.880;2023-04-21T03:59:35;98324.03;;;13.03;81.54
5905;BME280;2978;42.012;24.880;2023-04-21T04:02:00;98323.34;;;13.57;79.48
5905;BME280;2978;42.012;24.880;2023-04-21T04:04:25;98334.53;;;13.93;74.71
5905;BME280;2978;42.012;24.880;2023-04-21T04:06:51;98335.72;;;14.41;71.94
5905;BME280;2978;42.012;24.880;2023-04-21T04:09:16;98345.75;;;14.86;69.68
5905;BME280;2978;42.012;24.880;2023-04-21T04:11:41;98338.91;;;15.28;67.54
5905;BME280;2978;42.012;24.880;2023-04-21T05:50:29;66104.38;;;-143.09;100.00
5905;BME280;2978;42.012;24.880;2023-04-21T05:52:58;66104.38;;;-143.09;100.00
5905;BME280;2978;42.012;24.880;2023-04-21T05:55:23;66104.38;;;-143.09;100.00
